createdAt,value
2023-01-13T00:01:06.660Z,84.02
2023-01-13T00:03:34.541Z,83.91
2023-01-13T00:06:02.472Z,83.09
2023-01-13T00:08:30.387Z,83.90
2023-01-13T00:10:59.773Z,83.90
2023-01-13T00:13:27.691Z,84.21
2023-01-13T00:15:59.151Z,83.89
2023-01-13T00:18:27.416Z,83.97
2023-01-13T00:21:02.439Z,83.36
2023-01-13T00:23:31.910Z,83.03
2023-01-13T00:26:03.649Z,84.02
2023-01-13T00:28:31.745Z,83.89
2023-01-13T00:31:06.129Z,83.87
2023-01-13T00:33:34.154Z,83.16
2023-01-13T00:36:03.432Z,82.39
2023-01-13T00:38:33.053Z,83.19
2023-01-13T00:41:03.652Z,82.97
2023-01-13T00:43:32.555Z,82.97
2023-01-13T00:46:01.348Z,83.96
2023-01-13T00:48:30.479Z,83.13
2023-01-13T00:51:00.266Z,82.72
2023-01-13T00:53:29.328Z,82.41
2023-01-13T00:56:02.174Z,81.39
2023-01-13T00:58:32.597Z,81.96
2023-01-13T01:01:01.537Z,81.87
2023-01-13T01:03:29.760Z,81.99
2023-01-13T01:05:57.729Z,81.19
2023-01-13T01:08:25.599Z,81.43
2023-01-13T01:11:03.742Z,80.70
2023-01-13T01:13:31.947Z,81.49
2023-01-13T01:15:59.904Z,81.22
2023-01-13T01:18:27.837Z,80.80
2023-01-13T01:20:55.750Z,79.79
2023-01-13T01:23:23.769Z,79.92
2023-01-13T01:25:51.814Z,80.29
2023-01-13T01:28:21.239Z,80.38
2023-01-13T01:30:49.110Z,79.16
2023-01-13T01:33:17.564Z,80.65
2023-01-13T01:35:45.717Z,80.06
2023-01-13T01:38:13.576Z,79.53
2023-01-13T01:40:41.492Z,80.26
2023-01-13T01:43:32.973Z,80.53
2023-01-13T01:46:02.924Z,79.41
2023-01-13T01:48:34.498Z,79.06
2023-01-13T01:51:03.758Z,79.51
2023-01-13T01:53:33.277Z,77.44
2023-01-13T01:56:02.546Z,78.90
2023-01-13T01:58:36.552Z,78.29
2023-01-13T02:01:06.122Z,79.12
2023-01-13T02:03:37.028Z,78.13
2023-01-13T02:06:05.311Z,77.28
2023-01-13T02:08:34.114Z,77.56
2023-01-13T02:11:02.019Z,78.50
2023-01-13T02:13:29.146Z,78.21
2023-01-13T02:16:04.071Z,77.28
2023-01-13T02:18:56.532Z,77.69
2023-01-13T02:21:46.109Z,78.26
2023-01-13T02:24:56.658Z,77.21
2023-01-13T02:27:42.584Z,77.42
2023-01-13T02:30:36.912Z,76.86
2023-01-13T02:33:17.008Z,77.42
2023-01-13T02:35:51.658Z,77.79
2023-01-13T02:38:24.550Z,77.43
2023-01-13T02:40:59.286Z,77.11
2023-01-13T02:43:52.107Z,77.81
2023-01-13T02:46:27.985Z,77.73
2023-01-13T02:49:00.236Z,77.12
2023-01-13T02:51:30.941Z,77.42
2023-01-13T02:54:02.306Z,77.39
2023-01-13T02:56:32.112Z,76.94
2023-01-13T02:59:01.388Z,76.23
2023-01-13T03:01:30.787Z,76.33
2023-01-13T03:03:58.837Z,75.97
2023-01-13T03:06:42.520Z,75.87
2023-01-13T03:09:14.203Z,75.93
2023-01-13T03:11:52.043Z,76.37
2023-01-13T03:14:35.401Z,76.86
2023-01-13T03:17:18.523Z,77.57
2023-01-13T03:19:58.372Z,76.36
2023-01-13T03:22:33.717Z,76.45
2023-01-13T03:25:10.858Z,75.03
2023-01-13T03:27:44.466Z,75.13
2023-01-13T03:30:18.955Z,75.18
2023-01-13T03:32:52.177Z,75.26
2023-01-13T03:35:24.096Z,75.31
2023-01-13T03:37:59.367Z,75.40
2023-01-13T03:40:30.446Z,74.83
2023-01-13T03:43:20.453Z,75.63
2023-01-13T03:45:54.131Z,75.25
2023-01-13T03:48:26.304Z,75.91
2023-01-13T03:50:57.477Z,75.29
2023-01-13T03:53:29.508Z,75.57
2023-01-13T03:56:00.890Z,76.20
2023-01-13T03:58:33.947Z,76.84
2023-01-13T04:01:06.541Z,76.15
2023-01-13T04:03:42.221Z,76.27
2023-01-13T04:06:16.374Z,76.58
2023-01-13T04:08:52.317Z,75.99
2023-01-13T04:11:27.043Z,75.94
2023-01-13T04:13:56.930Z,76.07
2023-01-13T04:16:25.168Z,76.94
2023-01-13T04:18:54.452Z,75.86
2023-01-13T04:21:22.443Z,75.79
2023-01-13T04:23:51.478Z,75.21
2023-01-13T04:26:20.310Z,76.23
2023-01-13T04:28:48.186Z,76.20
2023-01-13T04:31:16.270Z,76.10
2023-01-13T04:33:44.336Z,76.49
2023-01-13T04:36:13.684Z,76.31
2023-01-13T04:38:41.594Z,76.58
2023-01-13T04:41:09.557Z,76.40
2023-01-13T04:43:37.539Z,75.86
2023-01-13T04:46:05.504Z,77.19
2023-01-13T04:48:33.404Z,77.12
2023-01-13T04:51:01.480Z,77.03
2023-01-13T04:53:30.769Z,76.79
2023-01-13T04:55:58.651Z,76.20
2023-01-13T04:58:26.651Z,76.79
2023-01-13T05:00:55.073Z,76.56
2023-01-13T05:03:24.345Z,76.74
2023-01-13T05:05:52.805Z,77.09
2023-01-13T05:08:20.659Z,76.12
2023-01-13T05:10:50.054Z,75.73
2023-01-13T05:13:35.256Z,76.11
2023-01-13T05:16:20.495Z,75.42
2023-01-13T05:18:48.412Z,75.97
2023-01-13T05:21:30.251Z,76.55
2023-01-13T05:24:15.359Z,77.37
2023-01-13T05:26:44.705Z,78.31
2023-01-13T05:29:12.636Z,77.07
2023-01-13T05:31:40.560Z,77.07
2023-01-13T05:34:08.494Z,76.78
2023-01-13T05:36:36.494Z,76.46
2023-01-13T05:39:05.319Z,76.52
2023-01-13T05:41:50.441Z,77.01
2023-01-13T05:44:19.699Z,76.83
2023-01-13T05:46:47.684Z,76.07
2023-01-13T05:49:15.597Z,76.55
2023-01-13T05:51:43.545Z,75.66
2023-01-13T05:54:11.504Z,75.46
2023-01-13T05:56:39.469Z,75.25
2023-01-13T05:59:07.411Z,75.59
2023-01-13T06:01:37.180Z,74.19
2023-01-13T06:04:05.425Z,74.87
2023-01-13T06:06:33.322Z,74.99
2023-01-13T06:09:01.250Z,74.51
2023-01-13T06:11:29.314Z,74.02
2023-01-13T06:13:57.164Z,74.16
2023-01-13T06:16:25.202Z,74.57
2023-01-13T06:18:54.862Z,74.94
2023-01-13T06:21:22.733Z,74.84
2023-01-13T06:23:50.635Z,73.94
2023-01-13T06:26:21.839Z,74.24
2023-01-13T06:28:50.095Z,73.69
2023-01-13T06:31:18.788Z,73.17
2023-01-13T06:33:51.905Z,74.00
2023-01-13T06:36:23.511Z,73.26
2023-01-13T06:38:58.085Z,72.92
2023-01-13T06:41:42.504Z,73.38
2023-01-13T06:44:10.729Z,72.83
2023-01-13T06:46:38.892Z,73.25
2023-01-13T06:49:07.123Z,74.39
2023-01-13T06:51:36.575Z,73.99
2023-01-13T06:54:04.757Z,74.53
2023-01-13T06:56:32.731Z,75.02
2023-01-13T06:59:00.715Z,75.58
2023-01-13T07:01:28.651Z,75.73
2023-01-13T07:03:58.267Z,76.42
2023-01-13T07:06:26.273Z,76.46
2023-01-13T07:08:55.756Z,76.97
2023-01-13T07:11:23.670Z,75.80
2023-01-13T07:14:08.812Z,75.84
2023-01-13T07:16:36.807Z,76.03
2023-01-13T07:19:04.751Z,75.43
2023-01-13T07:21:32.701Z,75.15
2023-01-13T07:24:01.930Z,75.27
2023-01-13T07:26:31.090Z,75.40
2023-01-13T07:28:59.082Z,74.61
2023-01-13T07:31:27.049Z,74.17
2023-01-13T07:33:54.968Z,74.06
2023-01-13T07:36:22.857Z,73.09
2023-01-13T07:38:50.722Z,73.67
2023-01-13T07:41:37.108Z,73.26
2023-01-13T07:44:06.352Z,73.58
2023-01-13T07:46:34.308Z,72.33
2023-01-13T07:49:02.238Z,72.62
2023-01-13T07:51:30.233Z,73.59
2023-01-13T07:53:58.135Z,72.67
2023-01-13T07:56:27.520Z,71.65
2023-01-13T07:58:55.452Z,71.61
2023-01-13T08:01:23.589Z,72.40
2023-01-13T08:03:51.591Z,71.61
2023-01-13T08:06:19.563Z,70.55
2023-01-13T08:08:47.621Z,70.84
2023-01-13T08:11:15.731Z,70.39
2023-01-13T08:13:45.047Z,70.41
2023-01-13T08:16:15.002Z,69.89
2023-01-13T08:18:43.551Z,69.35
2023-01-13T08:21:13.276Z,69.78
2023-01-13T08:23:42.190Z,68.43
2023-01-13T08:26:12.674Z,68.37
2023-01-13T08:28:41.484Z,69.80
2023-01-13T08:31:13.033Z,69.54
2023-01-13T08:33:41.517Z,69.18
2023-01-13T08:36:12.210Z,69.91
2023-01-13T08:38:41.356Z,69.72
2023-01-13T08:41:11.047Z,68.98
2023-01-13T08:43:38.981Z,69.27
2023-01-13T08:46:07.340Z,69.07
2023-01-13T08:48:36.734Z,69.43
2023-01-13T08:51:06.913Z,69.56
2023-01-13T08:53:35.007Z,69.61
2023-01-13T08:56:02.982Z,70.56
2023-01-13T08:58:30.885Z,70.40
2023-01-13T09:00:58.956Z,69.50
2023-01-13T09:03:27.093Z,70.30
2023-01-13T09:05:56.410Z,69.70
2023-01-13T09:08:24.630Z,70.23
2023-01-13T09:10:52.767Z,70.62
2023-01-13T09:13:21.758Z,69.73
2023-01-13T09:15:49.849Z,70.12
2023-01-13T09:18:17.801Z,68.18
2023-01-13T09:20:45.709Z,69.24
2023-01-13T09:23:15.126Z,68.50
2023-01-13T09:25:43.028Z,68.09
2023-01-13T09:28:10.936Z,69.49
2023-01-13T09:30:39.204Z,67.94
2023-01-13T09:33:24.768Z,68.19
2023-01-13T09:35:52.709Z,68.13
2023-01-13T09:38:21.973Z,68.06
2023-01-13T09:40:50.842Z,66.64
2023-01-13T09:43:42.521Z,67.43
2023-01-13T09:46:31.711Z,67.69
2023-01-13T09:49:01.722Z,67.78
2023-01-13T09:51:32.921Z,68.06
2023-01-13T09:54:07.436Z,69.15
2023-01-13T09:56:35.352Z,69.03
2023-01-13T09:59:03.306Z,67.45
2023-01-13T10:01:37.170Z,67.08
2023-01-13T10:04:09.226Z,67.49
2023-01-13T10:06:42.181Z,69.03
2023-01-13T10:09:15.993Z,67.67
2023-01-13T10:12:05.177Z,67.31
2023-01-13T10:14:38.820Z,66.56
2023-01-13T10:17:17.920Z,65.99
2023-01-13T10:19:50.361Z,63.64
2023-01-13T10:22:46.617Z,62.07
2023-01-13T10:25:23.333Z,62.21
2023-01-13T10:27:53.941Z,61.76
2023-01-13T10:30:27.536Z,63.02
2023-01-13T10:32:58.851Z,62.79
2023-01-13T10:35:53.532Z,63.24
2023-01-13T10:38:23.774Z,64.20
2023-01-13T10:40:55.388Z,63.19
2023-01-13T10:43:24.359Z,63.15
2023-01-13T10:46:02.186Z,63.99
2023-01-13T10:48:35.715Z,63.84
2023-01-13T10:51:21.124Z,64.00
2023-01-13T10:53:53.824Z,64.12
2023-01-13T10:56:24.785Z,64.07
2023-01-13T10:58:53.081Z,64.37
2023-01-13T11:01:27.223Z,63.65
2023-01-13T11:03:56.406Z,63.27
2023-01-13T11:06:27.284Z,63.51
2023-01-13T11:08:58.352Z,63.74
2023-01-13T11:11:38.110Z,63.21
2023-01-13T11:14:31.393Z,63.23
2023-01-13T11:17:02.664Z,60.90
2023-01-13T11:19:33.312Z,60.31
2023-01-13T11:22:05.710Z,58.21
2023-01-13T11:24:38.735Z,58.29
2023-01-13T11:27:15.668Z,58.27
2023-01-13T11:29:55.075Z,58.79
2023-01-13T11:32:25.681Z,58.01
2023-01-13T11:35:00.530Z,57.97
2023-01-13T11:37:32.499Z,57.22
2023-01-13T11:40:06.021Z,56.85
2023-01-13T11:42:41.233Z,56.17
2023-01-13T11:45:21.113Z,55.69
2023-01-13T11:47:52.535Z,55.97
2023-01-13T11:50:29.683Z,55.24
2023-01-13T11:53:10.871Z,55.98
2023-01-13T11:55:51.032Z,54.32
2023-01-13T11:58:38.729Z,54.52
2023-01-13T12:01:28.527Z,54.28
2023-01-13T12:04:11.033Z,53.57
2023-01-13T12:06:41.154Z,53.98
2023-01-13T12:09:27.003Z,54.11
2023-01-13T12:12:30.239Z,53.47
2023-01-13T12:15:19.613Z,54.10
2023-01-13T12:17:57.927Z,52.94
2023-01-13T12:20:36.989Z,54.23
2023-01-13T12:23:11.231Z,53.92
2023-01-13T12:25:44.799Z,53.63
2023-01-13T12:28:17.172Z,54.42
2023-01-13T12:30:51.419Z,53.47
2023-01-13T12:33:30.190Z,52.38
2023-01-13T12:36:02.414Z,53.05
2023-01-13T12:38:37.462Z,52.08
2023-01-13T12:41:14.781Z,51.39
2023-01-13T12:44:04.783Z,52.10
2023-01-13T12:46:46.732Z,50.91
2023-01-13T12:49:23.630Z,51.35
2023-01-13T12:52:12.672Z,51.55
2023-01-13T12:55:03.774Z,50.56
2023-01-13T12:57:34.727Z,50.32
2023-01-13T13:00:17.460Z,50.04
2023-01-13T13:03:21.654Z,50.91
2023-01-13T13:05:56.081Z,51.71
2023-01-13T13:08:37.553Z,51.29
2023-01-13T13:11:39.919Z,51.16
2023-01-13T13:14:12.695Z,51.08
2023-01-13T13:16:49.826Z,51.59
2023-01-13T13:19:46.688Z,50.84
2023-01-13T13:22:37.808Z,51.37
2023-01-13T13:25:26.335Z,51.28
2023-01-13T13:28:05.251Z,51.52
2023-01-13T13:30:37.812Z,51.51
2023-01-13T13:33:36.601Z,50.85
2023-01-13T13:36:17.680Z,50.36
2023-01-13T13:39:19.128Z,51.23
2023-01-13T13:42:06.971Z,50.51
2023-01-13T13:45:00.990Z,50.66
2023-01-13T13:47:36.771Z,51.60
2023-01-13T13:50:09.003Z,51.69
2023-01-13T13:52:41.112Z,51.93
2023-01-13T13:55:18.594Z,51.98
2023-01-13T13:57:48.652Z,52.03
2023-01-13T14:00:27.175Z,51.81
2023-01-13T14:02:58.574Z,52.08
2023-01-13T14:05:28.150Z,51.71
2023-01-13T14:08:00.581Z,51.36
2023-01-13T14:10:35.357Z,52.21
2023-01-13T14:13:13.945Z,51.59
2023-01-13T14:15:42.163Z,52.36
2023-01-13T14:18:14.917Z,51.25
2023-01-13T14:20:43.530Z,50.95
2023-01-13T14:23:17.465Z,50.11
2023-01-13T14:25:50.896Z,50.60
2023-01-13T14:28:23.889Z,50.81
2023-01-13T14:30:53.241Z,50.36
2023-01-13T14:33:24.834Z,50.10
2023-01-13T14:36:07.165Z,50.13
2023-01-13T14:38:35.136Z,50.80
2023-01-13T14:41:16.877Z,50.13
2023-01-13T14:43:50.055Z,49.96
2023-01-13T14:46:21.005Z,49.57
2023-01-13T14:48:51.391Z,48.85
2023-01-13T14:51:26.662Z,49.38
2023-01-13T14:53:55.750Z,50.20
2023-01-13T14:56:50.945Z,50.21
2023-01-13T14:59:45.105Z,50.27
2023-01-13T15:02:44.796Z,50.02
2023-01-13T15:05:33.864Z,49.74
2023-01-13T15:08:05.800Z,49.24
2023-01-13T15:10:38.085Z,49.56
2023-01-13T15:13:08.490Z,49.70
2023-01-13T15:15:38.893Z,49.58
2023-01-13T15:18:13.479Z,49.54
2023-01-13T15:20:42.339Z,49.71
2023-01-13T15:23:10.389Z,49.43
2023-01-13T15:25:40.421Z,50.18
2023-01-13T15:28:18.254Z,50.70
2023-01-13T15:30:46.516Z,50.58
2023-01-13T15:33:15.328Z,50.28
2023-01-13T15:35:45.889Z,50.15
2023-01-13T15:38:15.276Z,50.80
2023-01-13T15:40:43.931Z,50.76
2023-01-13T15:43:32.497Z,50.56
2023-01-13T15:46:18.468Z,50.33
2023-01-13T15:48:46.438Z,50.17
2023-01-13T15:51:21.204Z,50.62
2023-01-13T15:53:49.162Z,50.89
2023-01-13T15:56:23.364Z,50.83
2023-01-13T15:58:52.702Z,51.18
2023-01-13T16:01:20.869Z,50.98
2023-01-13T16:03:48.856Z,51.25
2023-01-13T16:06:20.227Z,51.34
2023-01-13T16:08:48.731Z,50.08
2023-01-13T16:11:16.912Z,50.29
2023-01-13T16:13:45.039Z,50.50
2023-01-13T16:16:24.488Z,50.86
2023-01-13T16:18:53.153Z,50.57
2023-01-13T16:21:22.096Z,50.82
2023-01-13T16:23:51.727Z,51.33
2023-01-13T16:26:22.953Z,51.73
2023-01-13T16:28:51.873Z,50.75
2023-01-13T16:31:25.800Z,50.08
2023-01-13T16:33:54.143Z,50.36
2023-01-13T16:36:23.461Z,50.39
2023-01-13T16:38:53.358Z,50.25
2023-01-13T16:41:22.383Z,51.13
2023-01-13T16:43:50.295Z,50.48
2023-01-13T16:46:23.064Z,50.80
2023-01-13T16:48:52.957Z,51.91
2023-01-13T16:51:21.747Z,52.52
2023-01-13T16:53:50.427Z,52.74
2023-01-13T16:56:24.950Z,53.70
2023-01-13T16:58:54.381Z,53.52
2023-01-13T17:01:26.766Z,52.81
2023-01-13T17:03:55.435Z,53.80
2023-01-13T17:06:28.474Z,53.79
2023-01-13T17:09:01.953Z,54.94
2023-01-13T17:11:29.974Z,54.38
2023-01-13T17:13:57.894Z,54.25
2023-01-13T17:16:28.204Z,54.16
2023-01-13T17:18:56.208Z,55.44
2023-01-13T17:21:24.095Z,56.60
2023-01-13T17:23:52.625Z,56.58
2023-01-13T17:26:33.259Z,57.47
2023-01-13T17:29:02.005Z,57.08
2023-01-13T17:31:31.523Z,57.00
2023-01-13T17:33:59.656Z,58.11
2023-01-13T17:36:27.626Z,58.10
2023-01-13T17:38:56.569Z,57.57
2023-01-13T17:41:24.887Z,59.59
2023-01-13T17:43:52.903Z,58.61
2023-01-13T17:46:22.893Z,58.31
2023-01-13T17:48:53.707Z,58.95
2023-01-13T17:51:25.017Z,58.91
2023-01-13T17:53:54.473Z,57.64
2023-01-13T17:56:22.341Z,58.43
2023-01-13T17:58:50.202Z,59.52
2023-01-13T18:01:20.144Z,57.60
2023-01-13T18:03:48.924Z,58.01
2023-01-13T18:06:20.024Z,59.08
2023-01-13T18:08:48.620Z,57.23
2023-01-13T18:11:18.865Z,57.42
2023-01-13T18:13:49.632Z,57.37
2023-01-13T18:16:20.182Z,57.78
2023-01-13T18:18:50.283Z,57.12
2023-01-13T18:21:39.531Z,57.41
2023-01-13T18:24:29.200Z,56.85
2023-01-13T18:27:15.053Z,57.13
2023-01-13T18:29:42.951Z,57.14
2023-01-13T18:32:10.820Z,57.43
2023-01-13T18:34:39.019Z,56.45
2023-01-13T18:37:09.949Z,55.39
2023-01-13T18:39:38.483Z,56.15
2023-01-13T18:42:24.686Z,57.27
2023-01-13T18:44:53.245Z,56.03
2023-01-13T18:47:21.166Z,56.63
2023-01-13T18:49:49.076Z,57.25
2023-01-13T18:52:18.359Z,56.18
2023-01-13T18:54:46.303Z,56.03
2023-01-13T18:57:14.680Z,56.29
2023-01-13T18:59:42.671Z,56.54
2023-01-13T19:02:15.894Z,55.49
2023-01-13T19:04:43.959Z,56.80
2023-01-13T19:07:13.316Z,56.35
2023-01-13T19:09:43.067Z,56.23
2023-01-13T19:12:12.964Z,56.15
2023-01-13T19:14:42.355Z,56.10
2023-01-13T19:17:13.010Z,56.59
2023-01-13T19:19:42.274Z,56.84
2023-01-13T19:22:11.680Z,56.17
2023-01-13T19:24:41.940Z,56.47
2023-01-13T19:27:11.939Z,56.59
2023-01-13T19:29:42.184Z,56.41
2023-01-13T19:32:21.064Z,56.35
2023-01-13T19:34:51.249Z,56.16
2023-01-13T19:37:19.879Z,57.10
2023-01-13T19:39:48.029Z,57.12
2023-01-13T19:42:34.784Z,56.22
2023-01-13T19:45:20.056Z,56.35
2023-01-13T19:47:47.952Z,56.76
2023-01-13T19:50:16.176Z,57.33
2023-01-13T19:52:44.385Z,56.42
2023-01-13T19:55:13.540Z,56.75
2023-01-13T19:57:43.431Z,56.61
2023-01-13T20:00:15.204Z,57.25
2023-01-13T20:02:47.810Z,57.69
2023-01-13T20:05:21.299Z,57.79
2023-01-13T20:07:50.786Z,57.38
2023-01-13T20:10:20.709Z,57.43
2023-01-13T20:12:50.213Z,57.63
2023-01-13T20:15:18.376Z,57.63
2023-01-13T20:17:46.281Z,57.40
2023-01-13T20:20:15.758Z,56.37
2023-01-13T20:22:43.749Z,56.37
2023-01-13T20:25:13.270Z,56.52
2023-01-13T20:27:41.404Z,57.12
2023-01-13T20:30:13.608Z,57.84
2023-01-13T20:32:41.913Z,57.43
2023-01-13T20:35:10.872Z,58.66
2023-01-13T20:37:39.617Z,57.51
2023-01-13T20:40:09.593Z,57.14
2023-01-13T20:42:44.643Z,57.59
2023-01-13T20:45:17.459Z,57.68
2023-01-13T20:47:46.467Z,58.01
2023-01-13T20:50:15.061Z,56.89
2023-01-13T20:52:43.063Z,57.22
2023-01-13T20:55:11.406Z,57.24
2023-01-13T20:57:39.361Z,58.26
2023-01-13T21:00:08.556Z,57.45
2023-01-13T21:02:39.420Z,58.02
2023-01-13T21:05:07.989Z,58.37
2023-01-13T21:07:35.862Z,57.96
2023-01-13T21:10:03.743Z,57.62
2023-01-13T21:12:48.920Z,57.95
2023-01-13T21:15:20.309Z,58.67
2023-01-13T21:18:08.920Z,58.33
2023-01-13T21:20:38.121Z,58.20
2023-01-13T21:23:06.700Z,58.92
2023-01-13T21:25:36.411Z,57.17
2023-01-13T21:28:06.271Z,58.02
2023-01-13T21:30:35.142Z,58.59
2023-01-13T21:33:06.196Z,57.98
2023-01-13T21:35:34.846Z,58.26
2023-01-13T21:38:02.796Z,57.69
2023-01-13T21:40:30.753Z,58.50
2023-01-13T21:43:16.063Z,58.86
2023-01-13T21:46:01.202Z,58.75
2023-01-13T21:48:30.925Z,58.34
2023-01-13T21:51:01.722Z,58.81
2023-01-13T21:53:29.660Z,59.62
2023-01-13T21:55:57.528Z,58.77
2023-01-13T21:58:25.464Z,58.25
2023-01-13T22:00:54.087Z,58.41
2023-01-13T22:03:22.192Z,57.67
2023-01-13T22:05:56.559Z,58.06
2023-01-13T22:08:24.642Z,58.48
2023-01-13T22:10:57.581Z,58.21
2023-01-13T22:13:43.475Z,57.90
2023-01-13T22:16:11.384Z,58.56
2023-01-13T22:18:39.267Z,58.35
2023-01-13T22:21:08.839Z,58.60
2023-01-13T22:23:36.857Z,58.97
2023-01-13T22:26:05.709Z,59.00
2023-01-13T22:28:34.427Z,58.70
2023-01-13T22:31:02.819Z,58.61
2023-01-13T22:33:30.693Z,58.50
2023-01-13T22:35:58.881Z,59.08
2023-01-13T22:38:28.129Z,59.25
2023-01-13T22:40:59.352Z,59.54
2023-01-13T22:43:28.620Z,59.95
2023-01-13T22:46:00.322Z,60.64
2023-01-13T22:48:28.520Z,60.73
2023-01-13T22:50:56.799Z,60.02
2023-01-13T22:53:24.774Z,59.56
2023-01-13T22:55:57.524Z,59.60
2023-01-13T22:58:25.930Z,59.94
2023-01-13T23:00:54.906Z,60.02
2023-01-13T23:03:23.531Z,59.73
2023-01-13T23:05:57.236Z,59.82
2023-01-13T23:08:25.429Z,59.54
2023-01-13T23:10:53.325Z,60.12
2023-01-13T23:13:22.664Z,60.64
2023-01-13T23:15:50.870Z,60.95
2023-01-13T23:18:18.726Z,61.02
2023-01-13T23:20:46.672Z,60.46
2023-01-13T23:23:14.516Z,61.64
2023-01-13T23:25:50.144Z,61.51
2023-01-13T23:28:18.310Z,62.20
2023-01-13T23:30:47.729Z,61.50
2023-01-13T23:33:15.909Z,61.24
2023-01-13T23:35:43.857Z,62.18
2023-01-13T23:38:11.776Z,61.90
2023-01-13T23:40:39.621Z,61.53
2023-01-13T23:43:07.558Z,61.48
2023-01-13T23:45:35.528Z,61.43
2023-01-13T23:48:04.859Z,61.47
2023-01-13T23:50:32.865Z,61.90
2023-01-13T23:53:00.819Z,61.91
2023-01-13T23:55:28.727Z,62.87
2023-01-13T23:57:57.125Z,62.61
